首页
METAR-TAF:

METAR-TAF

机场 :

罗伯茨国际机场

蒙羅維亞, 利比里亚

纬度: 06-15N, 经度: 010-21W, 海拔: 18米

当前天气观测

该预报发布于17分钟前的20:30 UTC
静风
温度 27°C
湿度 94%
气压 1011 hPa
能见度10公里或以上
散云层高于1400英尺
少量云层高于2400英尺, 积雨云.

METAR: GLRB 072030Z 00000KT 9999 SCT014 FEW024CB 27/26 Q1011 RMK CB/N-NE-E

时间: 20:47 (20:47 UTC)

预报

该预报发布于3小时和47分钟前的17:00 UTC
预报有效从07日的 18点(UTC)到 08日的 18点(UTC)
风速节,风向
能见度10公里或以上
散云层高于1200英尺
少量云层高于2300英尺, 积雨云.
短暂存在
从 07日的 19点(UTC)到 07日的 23点(UTC)
风速8节,风向东转东北
能見度: 8000
多云层高于1100英尺
少量云层高于2200英尺, 积雨云.
雷暴, 雨
短暂存在
从 08日的 01点(UTC)到 08日的 05点(UTC)
风速3节,风向多变
能見度: 9000
多云层高于1000英尺
少量云层高于2000英尺, 积雨云.
雷暴

TAF: GLRB 071700Z 0718/0818 00000KT 9999 SCT012 FEW023CB TEMPO 0719/0723 07008KT 8000 TSRA BKN011 FEW022CB TEMPO 0801/0805 VRB03KT 9000 TS BKN010 FEW020CB

超过4000个机场的气象观测和天气预报(METAR&TAF报告)。

可查询的气象台以黄色和红色小点在地图上表示。

将鼠标移到小点上方,可查看气象台名称。

然后点击查看天气观测和预报。

如需切换地图:点击带黑十字的绿色按钮放大地图;点击带横线的绿色按钮缩小地图;或者点击绿色箭头查看邻近地区的地图。


METAR-TAF: